MSC Opera — H3FV — position and weather

sailwx.info

Track history (hours):
 
Tides and Currents Weather Stations Pressure Air Temp Water Temp Dewpoint Dewpoint Depression Visibility Wind Speed Wind Dir Waves Ship Positions

MSC Opera

Operator: Mediterranean Shipping Company

Last reported at 2017-Jul-21 20:52 UTC. Time now 2017-Jul-24 08:27 UTC.
Position N 20°33' W 086°58'.

Length 275 m; draft 6.8 m.

Type: Ship. MMSI: 357627000.

Date/timePositionNaut miles runAvg speedWind from/ knotsBaromVisibWave heightAir tempDewpointWater temp
2017-Jul-21 20:52N 20°33' W 086°58'2 4.5
2017-Jul-21 20:26N 20°31' W 086°57'0 0.0
2017-Jul-21 19:59N 20°31' W 086°57'0 0.0
2017-Jul-21 19:28N 20°31' W 086°57'0 0.0
2017-Jul-21 18:58N 20°31' W 086°57'0 0.0
2017-Jul-21 18:28N 20°31' W 086°57'0 0.0
2017-Jul-21 17:58N 20°31' W 086°57'0 0.0
2017-Jul-21 17:31N 20°31' W 086°57'0 0.0
2017-Jul-21 17:00N 20°31' W 086°57'0 0.0
2017-Jul-21 16:27N 20°31' W 086°57'0 0.0
2017-Jul-21 16:00N 20°31' W 086°57'0 0.0
2017-Jul-21 15:30N 20°31' W 086°57'0 0.0
2017-Jul-21 14:59N 20°31' W 086°57'0 0.0
2017-Jul-21 14:29N 20°31' W 086°57'0 0.0
2017-Jul-21 13:59N 20°31' W 086°57'0 0.0
2017-Jul-21 13:29N 20°31' W 086°57'0 0.0
2017-Jul-21 12:59N 20°31' W 086°57'0 0.0
2017-Jul-21 12:28N 20°31' W 086°57'0 0.0
2017-Jul-21 11:58N 20°31' W 086°57'0 0.0
2017-Jul-21 11:28N 20°31' W 086°57'1 2.4
2017-Jul-21 11:00N 20°30' W 086°58'4 8.9
2017-Jul-21 10:30N 20°27' W 087°02'  
2017-Jul-14 23:43N 20°32' W 086°57'2 7.2
2017-Jul-14 23:31N 20°31' W 086°57'0 0.0
2017-Jul-14 22:59N 20°31' W 086°57'0 0.0
2017-Jul-14 22:29N 20°31' W 086°57'0 0.0
2017-Jul-14 21:53N 20°31' W 086°57'0 0.0
2017-Jul-14 21:28N 20°31' W 086°57'0 0.0
2017-Jul-14 20:58N 20°31' W 086°57'0 0.0
2017-Jul-14 19:58N 20°31' W 086°57'0 0.0
2017-Jul-14 19:28N 20°31' W 086°57'0 0.0
2017-Jul-14 18:57N 20°31' W 086°57'0 0.0
2017-Jul-14 18:27N 20°31' W 086°57'0 0.0
2017-Jul-14 18:00N 20°31' W 086°57'0 0.0
2017-Jul-14 17:27N 20°31' W 086°57'0 0.0
2017-Jul-14 16:59N 20°31' W 086°57'0 0.0
2017-Jul-14 16:26N 20°31' W 086°57'0 0.0
2017-Jul-14 15:56N 20°31' W 086°57'0 0.0
2017-Jul-14 15:29N 20°31' W 086°57'0 0.0
2017-Jul-14 14:53N 20°31' W 086°57'0 0.0
2017-Jul-14 14:29N 20°31' W 086°57'0 0.4
2017-Jul-14 14:00N 20°31' W 086°57'6 9.0
2017-Jul-14 13:21N 20°36' W 086°55'  
Track history (hours):
 
Tides and Currents Weather Stations Pressure Air Temp Water Temp Dewpoint Dewpoint Depression Visibility Wind Speed Wind Dir Waves Ship Positions

MSC Opera

Operator: Mediterranean Shipping Company

Last reported at 2017-Jul-21 20:52 UTC. Time now 2017-Jul-24 08:27 UTC.
Position N 20°33' W 086°58'.

Length 275 m; draft 6.8 m.

Type: Ship. MMSI: 357627000.

Date/timePositionNaut miles runAvg speedWind from/ knotsBaromVisibWave heightAir tempDewpointWater temp
2017-Jul-21 20:52N 20°33' W 086°58'2 4.5
2017-Jul-21 20:26N 20°31' W 086°57'0 0.0
2017-Jul-21 19:59N 20°31' W 086°57'0 0.0
2017-Jul-21 19:28N 20°31' W 086°57'0 0.0
2017-Jul-21 18:58N 20°31' W 086°57'0 0.0
2017-Jul-21 18:28N 20°31' W 086°57'0 0.0
2017-Jul-21 17:58N 20°31' W 086°57'0 0.0
2017-Jul-21 17:31N 20°31' W 086°57'0 0.0
2017-Jul-21 17:00N 20°31' W 086°57'0 0.0
2017-Jul-21 16:27N 20°31' W 086°57'0 0.0
2017-Jul-21 16:00N 20°31' W 086°57'0 0.0
2017-Jul-21 15:30N 20°31' W 086°57'0 0.0
2017-Jul-21 14:59N 20°31' W 086°57'0 0.0
2017-Jul-21 14:29N 20°31' W 086°57'0 0.0
2017-Jul-21 13:59N 20°31' W 086°57'0 0.0
2017-Jul-21 13:29N 20°31' W 086°57'0 0.0
2017-Jul-21 12:59N 20°31' W 086°57'0 0.0
2017-Jul-21 12:28N 20°31' W 086°57'0 0.0
2017-Jul-21 11:58N 20°31' W 086°57'0 0.0
2017-Jul-21 11:28N 20°31' W 086°57'1 2.4
2017-Jul-21 11:00N 20°30' W 086°58'4 8.9
2017-Jul-21 10:30N 20°27' W 087°02'  
2017-Jul-14 23:43N 20°32' W 086°57'2 7.2
2017-Jul-14 23:31N 20°31' W 086°57'0 0.0
2017-Jul-14 22:59N 20°31' W 086°57'0 0.0
2017-Jul-14 22:29N 20°31' W 086°57'0 0.0
2017-Jul-14 21:53N 20°31' W 086°57'0 0.0
2017-Jul-14 21:28N 20°31' W 086°57'0 0.0
2017-Jul-14 20:58N 20°31' W 086°57'0 0.0
2017-Jul-14 19:58N 20°31' W 086°57'0 0.0
2017-Jul-14 19:28N 20°31' W 086°57'0 0.0
2017-Jul-14 18:57N 20°31' W 086°57'0 0.0
2017-Jul-14 18:27N 20°31' W 086°57'0 0.0
2017-Jul-14 18:00N 20°31' W 086°57'0 0.0
2017-Jul-14 17:27N 20°31' W 086°57'0 0.0
2017-Jul-14 16:59N 20°31' W 086°57'0 0.0
2017-Jul-14 16:26N 20°31' W 086°57'0 0.0
2017-Jul-14 15:56N 20°31' W 086°57'0 0.0
2017-Jul-14 15:29N 20°31' W 086°57'0 0.0
2017-Jul-14 14:53N 20°31' W 086°57'0 0.0
2017-Jul-14 14:29N 20°31' W 086°57'0 0.4
2017-Jul-14 14:00N 20°31' W 086°57'6 9.0
2017-Jul-14 13:21N 20°36' W 086°55'  

Dump ship's entire track history